Time,TemperatureF,DewpointF,PressureIn,WindDirection,WindDirectionDegrees,WindSpeedMPH,WindSpeedGustMPH,Humidity,HourlyPrecipIn,Conditions,Clouds,dailyrainin,SoftwareType,DateUTC
2013-05-03 00:00:00,65.6,56.7,30.15,NE,49,0.0,0.0,73,0.00,,---,0.00,VWS V14.01,2013-05-03 04:00:00,
2013-05-03 00:01:00,64.7,55.1,30.12,NE,44,0.0,0.0,71,0.00,,---,0.00,VWS V14.01,2013-05-03 04:01:00,
2013-05-03 00:06:00,64.5,54.9,30.11,NE,40,0.0,0.0,71,0.00,,---,0.00,VWS V14.01,2013-05-03 04:06:00,
2013-05-03 00:11:00,64.3,54.3,30.11,NE,41,0.0,0.0,70,0.00,,---,0.00,VWS V14.01,2013-05-03 04:11:00,
2013-05-03 00:16:00,64.5,53.7,30.11,NE,51,0.0,0.0,68,0.00,,---,0.00,VWS V14.01,2013-05-03 04:16:00,
2013-05-03 00:21:00,64.4,53.6,30.11,ENE,58,0.0,0.0,68,0.00,,---,0.00,VWS V14.01,2013-05-03 04:21:00,
2013-05-03 00:26:00,64.3,53.5,30.10,NE,39,0.0,0.0,68,0.00,,---,0.00,VWS V14.01,2013-05-03 04:26:00,
2013-05-03 00:30:00,65.6,56.7,30.14,NE,39,0.0,0.0,73,0.00,,---,0.00,VWS V14.01,2013-05-03 04:30:00,
2013-05-03 00:31:00,64.4,54.0,30.10,NE,49,0.0,0.0,69,0.00,,---,0.00,VWS V14.01,2013-05-03 04:31:00,
2013-05-03 00:36:00,64.2,53.8,30.10,NE,47,0.0,0.0,69,0.00,,---,0.00,VWS V14.01,2013-05-03 04:36:00,
2013-05-03 00:41:00,64.2,54.2,30.10,ENE,59,0.0,0.0,70,0.00,,---,0.00,VWS V14.01,2013-05-03 04:41:00,
2013-05-03 00:46:00,64.1,54.1,30.10,East,79,0.0,0.0,70,0.00,,---,0.00,VWS V14.01,2013-05-03 04:46:00,
2013-05-03 00:51:00,64.1,54.1,30.10,NNE,30,0.0,0.0,70,0.00,,---,0.00,VWS V14.01,2013-05-03 04:51:00,
2013-05-03 00:56:00,64.1,54.1,30.10,NE,51,0.0,0.0,70,0.00,,---,0.00,VWS V14.01,2013-05-03 04:56:00,
2013-05-03 01:00:00,65.5,56.2,30.15,NE,56,0.0,0.0,72,0.00,,---,0.00,VWS V14.01,2013-05-03 05:00:00,
2013-05-03 01:01:00,64.0,54.4,30.10,NE,54,0.0,0.0,71,0.00,,---,0.00,VWS V14.01,2013-05-03 05:01:00,
2013-05-03 01:06:00,63.9,54.3,30.09,NE,34,0.0,0.0,71,0.00,,---,0.00,VWS V14.01,2013-05-03 05:06:00,
2013-05-03 01:11:00,63.8,54.2,30.09,NE,37,0.0,0.0,71,0.00,,---,0.00,VWS V14.01,2013-05-03 05:11:00,
2013-05-03 01:16:00,63.7,54.1,30.09,NE,49,0.0,0.0,71,0.00,,---,0.00,VWS V14.01,2013-05-03 05:16:00,
2013-05-03 01:21:00,63.6,54.0,30.09,NE,36,0.0,0.0,71,0.00,,---,0.00,VWS V14.01,2013-05-03 05:21:00,
2013-05-03 01:26:00,63.5,54.3,30.08,NE,36,0.0,0.0,72,0.00,,---,0.00,VWS V14.01,2013-05-03 05:26:00,
2013-05-03 01:30:00,65.5,55.9,30.14,ENE,64,0.0,0.0,71,0.00,,---,0.00,VWS V14.01,2013-05-03 05:30:00,
2013-05-03 01:31:00,63.4,54.2,30.08,NE,48,0.0,0.0,72,0.00,,---,0.00,VWS V14.01,2013-05-03 05:31:00,
2013-05-03 01:36:00,63.4,54.2,30.08,NE,43,0.0,0.0,72,0.00,,---,0.00,VWS V14.01,2013-05-03 05:36:00,
2013-05-03 01:41:00,63.3,54.1,30.08,NNE,32,0.0,0.0,72,0.00,,---,0.00,VWS V14.01,2013-05-03 05:41:00,
2013-05-03 01:46:00,63.3,54.1,30.08,NNE,24,0.0,0.0,72,0.00,,---,0.00,VWS V14.01,2013-05-03 05:46:00,
2013-05-03 01:51:00,63.1,53.9,30.08,NE,34,0.0,0.0,72,0.00,,---,0.00,VWS V14.01,2013-05-03 05:51:00,
2013-05-03 01:56:00,63.1,53.9,30.08,NNE,30,0.0,0.0,72,0.00,,---,0.00,VWS V14.01,2013-05-03 05:56:00,
2013-05-03 02:00:00,65.3,55.3,30.14,NE,44,0.0,0.0,70,0.00,,---,0.00,VWS V14.01,2013-05-03 06:00:00,
2013-05-03 02:01:00,62.9,53.8,30.08,NNE,18,0.0,0.0,72,0.00,,---,0.00,VWS V14.01,2013-05-03 06:01:00,
2013-05-03 02:06:00,62.9,53.8,30.08,NE,51,0.0,0.0,72,0.00,,---,0.00,VWS V14.01,2013-05-03 06:06:00,
2013-05-03 02:11:00,62.8,53.7,30.08,NE,36,0.0,0.0,72,0.00,,---,0.00,VWS V14.01,2013-05-03 06:11:00,
2013-05-03 02:16:00,62.7,53.5,30.08,NE,47,0.0,0.0,72,0.00,,---,0.00,VWS V14.01,2013-05-03 06:16:00,
2013-05-03 02:21:00,62.7,53.9,30.08,ENE,67,0.0,0.0,73,0.00,,---,0.00,VWS V14.01,2013-05-03 06:21:00,
2013-05-03 02:26:00,62.6,53.8,30.08,NE,34,0.0,0.0,73,0.00,,---,0.00,VWS V14.01,2013-05-03 06:26:00,
2013-05-03 02:30:00,65.0,55.4,30.13,NE,36,0.0,0.0,71,0.00,,---,0.00,VWS V14.01,2013-05-03 06:30:00,
2013-05-03 02:31:00,62.6,53.8,30.08,NE,44,0.0,0.0,73,0.00,,---,0.00,VWS V14.01,2013-05-03 06:31:00,
2013-05-03 02:36:00,62.5,54.1,30.08,NNE,31,0.0,0.0,74,0.00,,---,0.00,VWS V14.01,2013-05-03 06:36:00,
2013-05-03 02:41:00,62.4,54.0,30.08,NE,48,0.0,0.0,74,0.00,,---,0.00,VWS V14.01,2013-05-03 06:41:00,
2013-05-03 02:46:00,62.4,54.0,30.08,NNE,28,0.0,0.0,74,0.00,,---,0.00,VWS V14.01,2013-05-03 06:46:00,
2013-05-03 02:51:00,62.4,54.4,30.08,NE,45,0.0,0.0,75,0.00,,---,0.00,VWS V14.01,2013-05-03 06:51:00,
2013-05-03 02:56:00,62.3,54.3,30.08,NE,55,0.0,0.0,75,0.00,,---,0.00,VWS V14.01,2013-05-03 06:56:00,
2013-05-03 03:00:00,64.6,55.0,30.12,ENE,57,0.0,0.0,71,0.00,,---,0.00,VWS V14.01,2013-05-03 07:00:00,
2013-05-03 03:01:00,62.3,54.3,30.08,ENE,76,0.0,0.0,75,0.00,,---,0.00,VWS V14.01,2013-05-03 07:01:00,
2013-05-03 03:06:00,62.2,54.2,30.08,NE,44,0.0,0.0,75,0.00,,---,0.00,VWS V14.01,2013-05-03 07:06:00,
2013-05-03 03:11:00,62.2,54.2,30.08,NNE,26,0.0,0.0,75,0.00,,---,0.00,VWS V14.01,2013-05-03 07:11:00,
2013-05-03 03:16:00,62.1,54.1,30.08,NE,41,0.0,0.0,75,0.00,,---,0.00,VWS V14.01,2013-05-03 07:16:00,
2013-05-03 03:21:00,62.0,54.4,30.08,NNE,30,0.0,0.0,76,0.00,,---,0.00,VWS V14.01,2013-05-03 07:21:00,
2013-05-03 03:26:00,61.9,54.3,30.07,NE,42,0.0,0.0,76,0.00,,---,0.00,VWS V14.01,2013-05-03 07:26:00,
2013-05-03 03:30:00,64.4,54.0,30.10,NE,54,0.0,0.0,69,0.00,,---,0.00,VWS V14.01,2013-05-03 07:30:00,
2013-05-03 03:31:00,61.8,53.8,30.08,NE,34,0.0,0.0,75,0.00,,---,0.00,VWS V14.01,2013-05-03 07:31:00,
2013-05-03 03:36:00,61.7,54.1,30.07,NNE,30,0.0,0.0,76,0.00,,---,0.00,VWS V14.01,2013-05-03 07:36:00,
2013-05-03 03:41:00,61.5,53.9,30.07,NNE,20,0.0,0.0,76,0.00,,---,0.00,VWS V14.01,2013-05-03 07:41:00,
2013-05-03 03:46:00,61.2,53.6,30.07,NNE,25,0.0,0.0,76,0.00,,---,0.00,VWS V14.01,2013-05-03 07:46:00,
2013-05-03 03:51:00,60.9,52.9,30.06,NE,35,0.0,0.0,75,0.00,,---,0.00,VWS V14.01,2013-05-03 07:51:00,
2013-05-03 03:56:00,60.9,53.3,30.07,NNE,22,0.0,0.0,76,0.00,,---,0.00,VWS V14.01,2013-05-03 07:56:00,
2013-05-03 04:00:00,64.1,54.5,30.10,NNE,32,0.0,0.0,71,0.00,,---,0.00,VWS V14.01,2013-05-03 08:00:00,
2013-05-03 04:01:00,60.7,53.1,30.06,NE,35,0.0,0.0,76,0.00,,---,0.00,VWS V14.01,2013-05-03 08:01:00,
2013-05-03 04:06:00,60.7,53.5,30.06,NNE,28,0.0,0.0,77,0.00,,---,0.00,VWS V14.01,2013-05-03 08:06:00,
2013-05-03 04:11:00,60.5,52.9,30.06,NE,37,0.0,0.0,76,0.00,,---,0.00,VWS V14.01,2013-05-03 08:11:00,
2013-05-03 04:15:00,60.4,52.8,30.05,NE,34,0.0,0.0,76,0.00,,---,0.00,VWS V14.01,2013-05-03 08:15:00,
2013-05-03 04:20:00,60.3,53.1,30.06,NE,34,0.0,0.0,77,0.00,,---,0.00,VWS V14.01,2013-05-03 08:20:00,
2013-05-03 04:25:00,60.2,53.0,30.05,NE,45,0.0,0.0,77,0.00,,---,0.00,VWS V14.01,2013-05-03 08:25:00,
2013-05-03 04:30:00,60.2,53.0,30.05,NNE,31,0.0,0.0,77,0.00,,---,0.00,VWS V14.01,2013-05-03 08:30:00,
2013-05-03 04:35:00,60.0,52.8,30.05,North,360,0.0,0.0,77,0.00,,---,0.00,VWS V14.01,2013-05-03 08:35:00,
2013-05-03 04:40:00,60.0,52.8,30.05,NE,38,0.0,0.0,77,0.00,,---,0.00,VWS V14.01,2013-05-03 08:40:00,
2013-05-03 04:45:00,60.0,52.8,30.05,NE,41,0.0,0.0,77,0.00,,---,0.00,VWS V14.01,2013-05-03 08:45:00,
2013-05-03 04:50:00,60.0,53.1,30.06,NE,50,0.0,0.0,78,0.00,,---,0.00,VWS V14.01,2013-05-03 08:50:00,
2013-05-03 04:55:00,59.9,53.0,30.06,NNE,27,0.0,0.0,78,0.00,,---,0.00,VWS V14.01,2013-05-03 08:55:00,
2013-05-03 05:00:00,59.8,52.9,30.06,NNE,15,0.0,0.0,78,0.00,,---,0.00,VWS V14.01,2013-05-03 09:00:00,
2013-05-03 05:05:00,59.8,52.9,30.06,NNE,12,0.0,0.0,78,0.00,,---,0.00,VWS V14.01,2013-05-03 09:05:00,
2013-05-03 05:10:00,59.8,52.9,30.06,North,355,0.0,0.0,78,0.00,,---,0.00,VWS V14.01,2013-05-03 09:10:00,
2013-05-03 05:15:00,59.9,53.0,30.06,NNE,14,0.0,0.0,78,0.00,,---,0.00,VWS V14.01,2013-05-03 09:15:00,
2013-05-03 05:20:00,60.0,53.1,30.06,North,9,0.0,0.0,78,0.00,,---,0.00,VWS V14.01,2013-05-03 09:20:00,
2013-05-03 05:25:00,60.1,53.2,30.07,North,360,0.0,0.0,78,0.00,,---,0.00,VWS V14.01,2013-05-03 09:25:00,
2013-05-03 05:30:00,60.4,53.9,30.07,NNE,16,0.0,0.0,79,0.00,,---,0.00,VWS V14.01,2013-05-03 09:30:00,
2013-05-03 05:35:00,60.7,54.2,30.07,NE,38,0.0,0.0,79,0.00,,---,0.00,VWS V14.01,2013-05-03 09:35:00,
2013-05-03 05:40:00,60.8,54.3,30.06,NE,45,0.0,0.0,79,0.00,,---,0.00,VWS V14.01,2013-05-03 09:40:00,
2013-05-03 05:45:00,60.7,53.8,30.06,NNE,18,0.0,0.0,78,0.00,,---,0.00,VWS V14.01,2013-05-03 09:45:00,
2013-05-03 05:50:00,60.7,53.8,30.06,NNE,19,0.0,0.0,78,0.00,,---,0.00,VWS V14.01,2013-05-03 09:50:00,
2013-05-03 05:55:00,60.6,53.7,30.06,NE,39,0.0,0.0,78,0.00,,---,0.00,VWS V14.01,2013-05-03 09:55:00,
2013-05-03 06:00:00,60.7,53.8,30.06,NNE,24,0.0,0.0,78,0.00,,---,0.00,VWS V14.01,2013-05-03 10:00:00,
2013-05-03 06:05:00,60.8,53.9,30.06,NNE,14,0.0,0.0,78,0.00,,---,0.00,VWS V14.01,2013-05-03 10:05:00,
2013-05-03 06:10:00,60.9,54.3,30.06,NE,39,0.0,0.0,79,0.00,,---,0.00,VWS V14.01,2013-05-03 10:10:00,
2013-05-03 06:15:00,60.9,54.0,30.06,North,5,0.0,0.0,78,0.00,,---,0.00,VWS V14.01,2013-05-03 10:15:00,
2013-05-03 06:20:00,60.8,53.9,30.06,NNE,20,0.0,0.0,78,0.00,,---,0.00,VWS V14.01,2013-05-03 10:20:00,
2013-05-03 06:25:00,61.0,54.5,30.07,NNE,22,0.0,0.0,79,0.00,,---,0.00,VWS V14.01,2013-05-03 10:25:00,
2013-05-03 06:30:00,61.0,54.5,30.07,NE,38,0.0,0.0,79,0.00,,---,0.00,VWS V14.01,2013-05-03 10:30:00,
2013-05-03 06:35:00,61.1,54.5,30.07,NNE,28,0.0,0.0,79,0.00,,---,0.00,VWS V14.01,2013-05-03 10:35:00,
2013-05-03 06:40:00,61.1,54.2,30.07,NE,39,0.0,0.0,78,0.00,,---,0.00,VWS V14.01,2013-05-03 10:40:00,
2013-05-03 06:45:00,61.1,54.2,30.07,NNE,25,0.0,0.0,78,0.00,,---,0.00,VWS V14.01,2013-05-03 10:45:00,
2013-05-03 06:50:00,61.0,54.1,30.07,NNE,15,0.0,0.0,78,0.00,,---,0.00,VWS V14.01,2013-05-03 10:50:00,
2013-05-03 06:55:00,60.9,54.0,30.07,NNE,25,0.0,0.0,78,0.00,,---,0.00,VWS V14.01,2013-05-03 10:55:00,
2013-05-03 07:00:00,60.9,54.3,30.08,NNE,22,0.0,0.0,79,0.00,,---,0.00,VWS V14.01,2013-05-03 11:00:00,
2013-05-03 07:05:00,60.9,54.0,30.08,NNE,28,0.0,0.0,78,0.00,,---,0.00,VWS V14.01,2013-05-03 11:05:00,
2013-05-03 07:10:00,60.9,54.3,30.08,NE,35,0.0,0.0,79,0.00,,---,0.00,VWS V14.01,2013-05-03 11:10:00,
2013-05-03 07:15:00,60.9,54.3,30.08,North,5,0.0,0.0,79,0.00,,---,0.00,VWS V14.01,2013-05-03 11:15:00,
2013-05-03 07:20:00,61.0,54.5,30.08,NNE,30,0.0,0.0,79,0.00,,---,0.00,VWS V14.01,2013-05-03 11:20:00,
2013-05-03 07:25:00,61.0,54.1,30.08,NE,40,0.0,0.0,78,0.00,,---,0.00,VWS V14.01,2013-05-03 11:25:00,
2013-05-03 07:30:00,61.1,54.2,30.08,NNE,15,0.0,0.0,78,0.00,,---,0.00,VWS V14.01,2013-05-03 11:30:00,
2013-05-03 07:35:00,61.0,54.1,30.08,NE,51,0.0,0.0,78,0.00,,---,0.00,VWS V14.01,2013-05-03 11:35:00,
2013-05-03 07:40:00,61.1,54.5,30.08,NNE,17,0.0,0.0,79,0.00,,---,0.00,VWS V14.01,2013-05-03 11:40:00,
2013-05-03 07:45:00,61.2,54.6,30.08,NE,36,0.0,0.0,79,0.00,,---,0.00,VWS V14.01,2013-05-03 11:45:00,
2013-05-03 07:50:00,61.4,54.8,30.08,NE,46,0.0,0.0,79,0.00,,---,0.00,VWS V14.01,2013-05-03 11:50:00,
2013-05-03 07:55:00,61.7,55.1,30.08,ENE,57,0.0,0.0,79,0.00,,---,0.00,VWS V14.01,2013-05-03 11:55:00,
2013-05-03 08:00:00,62.0,55.4,30.09,NE,54,0.0,0.0,79,0.00,,---,0.00,VWS V14.01,2013-05-03 12:00:00,
2013-05-03 08:05:00,62.0,55.1,30.08,NE,50,0.0,0.0,78,0.00,,---,0.00,VWS V14.01,2013-05-03 12:05:00,
2013-05-03 08:10:00,62.1,55.2,30.09,ENE,58,0.0,0.0,78,0.00,,---,0.00,VWS V14.01,2013-05-03 12:10:00,
2013-05-03 08:15:00,62.1,55.2,30.09,NE,46,0.0,0.0,78,0.00,,---,0.00,VWS V14.01,2013-05-03 12:15:00,
2013-05-03 08:21:00,62.1,55.2,30.09,NNE,24,0.0,0.0,78,0.00,,---,0.00,VWS V14.01,2013-05-03 12:21:00,
2013-05-03 08:26:00,62.4,55.5,30.09,NNE,21,0.0,0.0,78,0.00,,---,0.00,VWS V14.01,2013-05-03 12:26:00,
2013-05-03 08:30:00,60.4,53.9,30.07,NNE,22,0.0,0.0,79,0.00,,---,0.00,VWS V14.01,2013-05-03 12:30:00,
2013-05-03 08:31:00,62.3,55.4,30.09,NE,53,0.0,0.0,78,0.00,,---,0.00,VWS V14.01,2013-05-03 12:31:00,
2013-05-03 08:36:00,62.4,55.5,30.09,NE,42,0.0,0.0,78,0.00,,---,0.00,VWS V14.01,2013-05-03 12:36:00,
2013-05-03 08:41:00,62.4,55.5,30.09,ENE,71,0.0,0.0,78,0.00,,---,0.00,VWS V14.01,2013-05-03 12:41:00,
2013-05-03 08:46:00,62.4,55.5,30.09,NE,48,0.0,0.0,78,0.00,,---,0.00,VWS V14.01,2013-05-03 12:46:00,
2013-05-03 08:51:00,62.4,55.5,30.09,NE,53,0.0,0.0,78,0.00,,---,0.00,VWS V14.01,2013-05-03 12:51:00,
2013-05-03 08:56:00,62.3,55.4,30.09,NE,49,0.0,0.0,78,0.00,,---,0.00,VWS V14.01,2013-05-03 12:56:00,
2013-05-03 09:00:00,60.7,53.8,30.06,NNE,24,0.0,0.0,78,0.00,,---,0.00,VWS V14.01,2013-05-03 13:00:00,
2013-05-03 09:01:00,62.3,55.4,30.09,NE,44,0.0,0.0,78,0.00,,---,0.00,VWS V14.01,2013-05-03 13:01:00,
2013-05-03 09:06:00,62.3,55.4,30.09,NE,53,0.0,0.0,78,0.00,,---,0.00,VWS V14.01,2013-05-03 13:06:00,
2013-05-03 09:11:00,62.4,55.5,30.09,NE,45,0.0,0.0,78,0.00,,---,0.00,VWS V14.01,2013-05-03 13:11:00,
2013-05-03 09:16:00,62.3,55.4,30.09,ENE,69,0.0,0.0,78,0.00,,---,0.00,VWS V14.01,2013-05-03 13:16:00,
2013-05-03 09:21:00,62.4,55.5,30.09,NNE,33,0.0,0.0,78,0.00,,---,0.00,VWS V14.01,2013-05-03 13:21:00,
2013-05-03 09:26:00,62.4,55.5,30.09,ENE,63,0.0,0.0,78,0.00,,---,0.00,VWS V14.01,2013-05-03 13:26:00,
2013-05-03 09:30:00,61.0,54.5,30.07,NE,38,0.0,0.0,79,0.00,,---,0.00,VWS V14.01,2013-05-03 13:30:00,
2013-05-03 09:31:00,62.5,55.6,30.09,NE,49,0.0,0.0,78,0.00,,---,0.00,VWS V14.01,2013-05-03 13:31:00,
2013-05-03 09:36:00,62.6,55.7,30.09,North,355,0.0,0.0,78,0.00,,---,0.00,VWS V14.01,2013-05-03 13:36:00,
2013-05-03 09:41:00,62.6,55.3,30.09,NE,40,0.0,0.0,77,0.00,,---,0.00,VWS V14.01,2013-05-03 13:41:00,
2013-05-03 09:46:00,62.7,55.8,30.10,NE,54,0.0,0.0,78,0.00,,---,0.00,VWS V14.01,2013-05-03 13:46:00,
2013-05-03 09:51:00,62.6,55.3,30.10,NE,44,0.0,0.0,77,0.00,,---,0.00,VWS V14.01,2013-05-03 13:51:00,
2013-05-03 09:56:00,62.8,55.8,30.10,NNE,16,0.0,0.0,78,0.00,,---,0.00,VWS V14.01,2013-05-03 13:56:00,
2013-05-03 10:00:00,60.9,54.3,30.08,NNE,22,0.0,0.0,79,0.00,,---,0.00,VWS V14.01,2013-05-03 14:00:00,
2013-05-03 10:01:00,62.8,55.5,30.10,NE,45,0.0,0.0,77,0.00,,---,0.00,VWS V14.01,2013-05-03 14:01:00,
2013-05-03 10:06:00,62.8,55.5,30.10,NNE,31,0.0,0.0,77,0.00,,---,0.00,VWS V14.01,2013-05-03 14:06:00,
2013-05-03 10:11:00,62.8,55.5,30.10,NE,43,0.0,0.0,77,0.00,,---,0.00,VWS V14.01,2013-05-03 14:11:00,
2013-05-03 10:16:00,63.0,55.7,30.10,NE,37,0.0,0.0,77,0.00,,---,0.00,VWS V14.01,2013-05-03 14:16:00,
2013-05-03 10:20:00,63.0,55.7,30.10,NNE,33,0.0,0.0,77,0.00,,---,0.00,VWS V14.01,2013-05-03 14:20:00,
2013-05-03 10:25:00,62.9,55.6,30.10,NNE,17,0.0,0.0,77,0.00,,---,0.00,VWS V14.01,2013-05-03 14:25:00,
2013-05-03 10:30:00,63.0,55.7,30.09,NE,36,0.0,0.0,77,0.00,,---,0.00,VWS V14.01,2013-05-03 14:30:00,
2013-05-03 10:35:00,63.0,55.7,30.09,NE,51,0.0,0.0,77,0.00,,---,0.00,VWS V14.01,2013-05-03 14:35:00,
2013-05-03 10:40:00,63.0,55.3,30.10,NE,55,0.0,0.0,76,0.00,,---,0.00,VWS V14.01,2013-05-03 14:40:00,
2013-05-03 10:45:00,63.1,55.8,30.10,NE,36,0.0,0.0,77,0.00,,---,0.00,VWS V14.01,2013-05-03 14:45:00,
2013-05-03 10:50:00,63.2,55.5,30.10,NE,49,0.0,0.0,76,0.00,,---,0.00,VWS V14.01,2013-05-03 14:50:00,
2013-05-03 10:55:00,63.4,55.7,30.10,NE,46,0.0,0.0,76,0.00,,---,0.00,VWS V14.01,2013-05-03 14:55:00,
2013-05-03 11:00:00,63.7,56.0,30.10,NNE,22,0.0,0.0,76,0.00,,---,0.00,VWS V14.01,2013-05-03 15:00:00,
2013-05-03 11:05:00,63.9,56.2,30.10,NE,34,0.0,0.0,76,0.00,,---,0.00,VWS V14.01,2013-05-03 15:05:00,
2013-05-03 11:10:00,64.2,56.1,30.10,NE,37,0.0,0.0,75,0.00,,---,0.00,VWS V14.01,2013-05-03 15:10:00,
2013-05-03 11:15:00,64.3,56.2,30.10,NE,40,0.0,0.0,75,0.00,,---,0.00,VWS V14.01,2013-05-03 15:15:00,
2013-05-03 11:20:00,64.4,56.3,30.10,ENE,57,0.0,0.0,75,0.00,,---,0.00,VWS V14.01,2013-05-03 15:20:00,
2013-05-03 11:25:00,64.5,56.4,30.10,ENE,69,0.0,0.0,75,0.00,,---,0.00,VWS V14.01,2013-05-03 15:25:00,
2013-05-03 11:30:00,64.5,56.8,30.09,NE,38,0.0,0.0,76,0.00,,---,0.00,VWS V14.01,2013-05-03 15:30:00,
2013-05-03 11:35:00,64.3,56.2,30.09,NE,42,0.0,0.0,75,0.00,,---,0.00,VWS V14.01,2013-05-03 15:35:00,
2013-05-03 11:40:00,64.2,56.5,30.09,NE,37,0.0,0.0,76,0.00,,---,0.00,VWS V14.01,2013-05-03 15:40:00,
2013-05-03 11:45:00,64.6,56.9,30.09,NE,48,0.0,0.0,76,0.00,,---,0.00,VWS V14.01,2013-05-03 15:45:00,
2013-05-03 11:50:00,65.3,57.2,30.10,ENE,60,0.0,0.0,75,0.00,,---,0.00,VWS V14.01,2013-05-03 15:50:00,
2013-05-03 11:55:00,65.0,56.5,30.10,NE,40,0.0,0.0,74,0.00,,---,0.00,VWS V14.01,2013-05-03 15:55:00,
2013-05-03 12:00:00,65.6,57.5,30.10,ENE,58,0.0,0.0,75,0.00,,---,0.00,VWS V14.01,2013-05-03 16:00:00,
2013-05-03 12:05:00,65.7,57.6,30.10,NNE,30,0.0,0.0,75,0.00,,---,0.00,VWS V14.01,2013-05-03 16:05:00,
2013-05-03 12:10:00,65.6,57.1,30.10,NE,47,0.0,0.0,74,0.00,,---,0.00,VWS V14.01,2013-05-03 16:10:00,
2013-05-03 12:15:00,65.4,57.3,30.10,ENE,57,0.0,0.0,75,0.00,,---,0.00,VWS V14.01,2013-05-03 16:15:00,
2013-05-03 12:20:00,65.1,57.4,30.09,NE,53,0.0,0.0,76,0.00,,---,0.00,VWS V14.01,2013-05-03 16:20:00,
2013-05-03 12:25:00,65.0,56.9,30.09,NE,53,0.0,0.0,75,0.00,,---,0.00,VWS V14.01,2013-05-03 16:25:00,
2013-05-03 12:30:00,65.1,57.4,30.09,NNE,22,0.0,0.0,76,0.00,,---,0.00,VWS V14.01,2013-05-03 16:30:00,
2013-05-03 12:35:00,64.9,56.8,30.09,NE,45,0.0,0.0,75,0.00,,---,0.00,VWS V14.01,2013-05-03 16:35:00,
2013-05-03 12:40:00,65.3,57.9,30.09,NE,46,0.0,0.0,77,0.00,,---,0.00,VWS V14.01,2013-05-03 16:40:00,
2013-05-03 12:45:00,65.3,57.5,30.09,ENE,76,0.0,0.0,76,0.00,,---,0.00,VWS V14.01,2013-05-03 16:45:00,
2013-05-03 12:50:00,65.1,57.4,30.08,NE,46,0.0,0.0,76,0.00,,---,0.00,VWS V14.01,2013-05-03 16:50:00,
2013-05-03 12:55:00,65.0,57.3,30.08,NE,51,0.0,0.0,76,0.00,,---,0.00,VWS V14.01,2013-05-03 16:55:00,
2013-05-03 13:00:00,64.7,57.3,30.09,NE,36,0.0,0.0,77,0.00,,---,0.00,VWS V14.01,2013-05-03 17:00:00,
2013-05-03 13:05:00,64.7,57.3,30.09,NE,49,0.0,0.0,77,0.00,,---,0.00,VWS V14.01,2013-05-03 17:05:00,
2013-05-03 13:10:00,64.9,57.5,30.08,NE,46,0.0,0.0,77,0.00,,---,0.00,VWS V14.01,2013-05-03 17:10:00,
2013-05-03 13:15:00,64.7,57.3,30.09,NE,40,0.0,0.0,77,0.00,,---,0.00,VWS V14.01,2013-05-03 17:15:00,
2013-05-03 13:20:00,64.8,57.4,30.09,NNE,25,0.0,0.0,77,0.00,,---,0.00,VWS V14.01,2013-05-03 17:20:00,
2013-05-03 13:25:00,64.7,57.3,30.08,NE,44,0.0,0.0,77,0.00,,---,0.00,VWS V14.01,2013-05-03 17:25:00,
2013-05-03 13:30:00,64.8,57.4,30.08,ENE,74,0.0,0.0,77,0.00,,---,0.00,VWS V14.01,2013-05-03 17:30:00,
2013-05-03 13:35:00,64.9,57.5,30.08,NNE,33,0.0,0.0,77,0.00,,---,0.00,VWS V14.01,2013-05-03 17:35:00,
2013-05-03 13:40:00,64.8,56.7,30.08,ENE,60,0.0,0.0,75,0.00,,---,0.00,VWS V14.01,2013-05-03 17:40:00,
2013-05-03 13:45:00,64.9,56.8,30.08,ENE,67,0.0,0.0,75,0.00,,---,0.00,VWS V14.01,2013-05-03 17:45:00,
2013-05-03 13:50:00,64.9,57.2,30.08,ENE,65,0.0,0.0,76,0.00,,---,0.00,VWS V14.01,2013-05-03 17:50:00,
2013-05-03 13:55:00,65.0,57.3,30.08,NE,37,0.0,0.0,76,0.00,,---,0.00,VWS V14.01,2013-05-03 17:55:00,
2013-05-03 14:00:00,65.1,57.4,30.08,ENE,59,0.0,0.0,76,0.00,,---,0.00,VWS V14.01,2013-05-03 18:00:00,
2013-05-03 14:05:00,65.0,56.9,30.09,ENE,61,0.0,0.0,75,0.00,,---,0.00,VWS V14.01,2013-05-03 18:05:00,
2013-05-03 14:10:00,64.9,57.2,30.09,ENE,61,0.0,0.0,76,0.00,,---,0.00,VWS V14.01,2013-05-03 18:10:00,
2013-05-03 14:15:00,64.7,57.0,30.09,NE,55,0.0,0.0,76,0.00,,---,0.00,VWS V14.01,2013-05-03 18:15:00,
2013-05-03 14:20:00,64.7,57.0,30.09,NE,36,0.0,0.0,76,0.00,,---,0.00,VWS V14.01,2013-05-03 18:20:00,
2013-05-03 14:25:00,64.5,56.8,30.09,NNE,31,0.0,0.0,76,0.00,,---,0.00,VWS V14.01,2013-05-03 18:25:00,
2013-05-03 14:30:00,64.4,56.7,30.09,NNE,16,0.0,0.0,76,0.00,,---,0.00,VWS V14.01,2013-05-03 18:30:00,
2013-05-03 14:35:00,64.4,56.3,30.08,NE,42,0.0,0.0,75,0.00,,---,0.00,VWS V14.01,2013-05-03 18:35:00,
2013-05-03 14:40:00,64.3,55.8,30.08,NE,52,0.0,0.0,74,0.00,,---,0.00,VWS V14.01,2013-05-03 18:40:00,
2013-05-03 14:45:00,64.3,55.1,30.08,NE,56,0.0,0.0,72,0.00,,---,0.00,VWS V14.01,2013-05-03 18:45:00,
2013-05-03 14:50:00,64.5,54.9,30.08,ENE,66,0.0,0.0,71,0.00,,---,0.00,VWS V14.01,2013-05-03 18:50:00,
2013-05-03 14:55:00,64.6,55.0,30.08,NE,50,0.0,0.0,71,0.00,,---,0.00,VWS V14.01,2013-05-03 18:55:00,
2013-05-03 15:00:00,64.5,54.9,30.08,NE,35,0.0,0.0,71,0.00,,---,0.00,VWS V14.01,2013-05-03 19:00:00,
2013-05-03 15:05:00,64.2,55.8,30.08,NE,49,0.0,0.0,74,0.00,,---,0.00,VWS V14.01,2013-05-03 19:05:00,
2013-05-03 15:10:00,64.3,55.1,30.08,NE,36,0.0,0.0,72,0.00,,---,0.00,VWS V14.01,2013-05-03 19:10:00,
2013-05-03 15:15:00,64.8,54.8,30.08,NE,40,0.0,0.0,70,0.00,,---,0.00,VWS V14.01,2013-05-03 19:15:00,
2013-05-03 15:20:00,64.9,54.1,30.08,ENE,59,0.0,0.0,68,0.00,,---,0.00,VWS V14.01,2013-05-03 19:20:00,
2013-05-03 15:25:00,64.7,53.9,30.08,NE,46,0.0,0.0,68,0.00,,---,0.00,VWS V14.01,2013-05-03 19:25:00,
2013-05-03 15:30:00,64.8,54.8,30.08,ENE,69,0.0,0.0,70,0.00,,---,0.00,VWS V14.01,2013-05-03 19:30:00,
2013-05-03 15:35:00,64.9,54.5,30.07,NE,49,0.0,0.0,69,0.00,,---,0.00,VWS V14.01,2013-05-03 19:35:00,
2013-05-03 15:40:00,64.9,54.5,30.07,NE,48,0.0,0.0,69,0.00,,---,0.00,VWS V14.01,2013-05-03 19:40:00,
2013-05-03 15:45:00,64.6,54.6,30.07,ENE,69,0.0,0.0,70,0.00,,---,0.00,VWS V14.01,2013-05-03 19:45:00,
2013-05-03 15:50:00,64.3,55.1,30.07,ENE,58,0.0,0.0,72,0.00,,---,0.00,VWS V14.01,2013-05-03 19:50:00,
2013-05-03 15:55:00,64.0,54.4,30.07,NNE,33,0.0,0.0,71,0.00,,---,0.00,VWS V14.01,2013-05-03 19:55:00,
2013-05-03 16:00:00,64.2,53.8,30.06,ENE,65,0.0,0.0,69,0.00,,---,0.00,VWS V14.01,2013-05-03 20:00:00,
2013-05-03 16:05:00,64.7,53.5,30.06,NE,56,0.0,0.0,67,0.00,,---,0.00,VWS V14.01,2013-05-03 20:05:00,
2013-05-03 16:10:00,65.1,53.1,30.06,ENE,71,0.0,0.0,65,0.00,,---,0.00,VWS V14.01,2013-05-03 20:10:00,
2013-05-03 16:15:00,65.3,53.2,30.05,ENE,72,0.0,0.0,65,0.00,,---,0.00,VWS V14.01,2013-05-03 20:15:00,
2013-05-03 16:20:00,65.3,53.2,30.05,ENE,74,0.0,0.0,65,0.00,,---,0.00,VWS V14.01,2013-05-03 20:20:00,
2013-05-03 16:25:00,64.9,54.1,30.06,ENE,61,0.0,0.0,68,0.00,,---,0.00,VWS V14.01,2013-05-03 20:25:00,
2013-05-03 16:30:00,64.3,54.3,30.05,ENE,64,0.0,0.0,70,0.00,,---,0.00,VWS V14.01,2013-05-03 20:30:00,
2013-05-03 16:35:00,63.9,54.3,30.05,ENE,71,0.0,0.0,71,0.00,,---,0.00,VWS V14.01,2013-05-03 20:35:00,
2013-05-03 16:40:00,64.0,54.0,30.05,NNE,32,0.0,0.0,70,0.00,,---,0.00,VWS V14.01,2013-05-03 20:40:00,
2013-05-03 16:45:00,64.1,52.9,30.05,NE,49,0.0,0.0,67,0.00,,---,0.00,VWS V14.01,2013-05-03 20:45:00,
2013-05-03 16:50:00,64.3,52.7,30.05,NE,51,0.0,0.0,66,0.00,,---,0.00,VWS V14.01,2013-05-03 20:50:00,
2013-05-03 16:55:00,64.6,53.4,30.05,ENE,59,0.0,0.0,67,0.00,,---,0.00,VWS V14.01,2013-05-03 20:55:00,
2013-05-03 17:00:00,64.7,52.3,30.04,ENE,58,0.0,0.0,64,0.00,,---,0.00,VWS V14.01,2013-05-03 21:00:00,
2013-05-03 17:05:00,64.9,52.9,30.05,NE,42,0.0,0.0,65,0.00,,---,0.00,VWS V14.01,2013-05-03 21:05:00,
2013-05-03 17:10:00,64.9,52.0,30.05,ENE,57,0.0,0.0,63,0.00,,---,0.00,VWS V14.01,2013-05-03 21:10:00,
2013-05-03 17:15:00,65.1,52.2,30.05,East,89,0.0,0.0,63,0.00,,---,0.00,VWS V14.01,2013-05-03 21:15:00,
2013-05-03 17:20:00,65.1,51.8,30.05,NE,53,0.0,0.0,62,0.00,,---,0.00,VWS V14.01,2013-05-03 21:20:00,
2013-05-03 17:25:00,65.2,52.3,30.05,ENE,60,0.0,0.0,63,0.00,,---,0.00,VWS V14.01,2013-05-03 21:25:00,
2013-05-03 17:30:00,65.2,51.9,30.05,ENE,57,0.0,0.0,62,0.00,,---,0.00,VWS V14.01,2013-05-03 21:30:00,
2013-05-03 17:35:00,65.2,51.9,30.05,NE,53,0.0,0.0,62,0.00,,---,0.00,VWS V14.01,2013-05-03 21:35:00,
2013-05-03 17:39:00,65.3,52.8,30.05,NE,55,0.0,0.0,64,0.00,,---,0.00,VWS V14.01,2013-05-03 21:39:00,
2013-05-03 17:44:00,65.3,53.2,30.05,NNE,33,0.0,0.0,65,0.00,,---,0.00,VWS V14.01,2013-05-03 21:44:00,
2013-05-03 17:49:00,65.3,52.4,30.05,NE,55,0.0,0.0,63,0.00,,---,0.00,VWS V14.01,2013-05-03 21:49:00,
2013-05-03 17:54:00,65.3,52.0,30.05,ENE,58,0.0,0.0,62,0.00,,---,0.00,VWS V14.01,2013-05-03 21:54:00,
2013-05-03 17:59:00,65.4,52.5,30.05,NE,46,0.0,0.0,63,0.00,,---,0.00,VWS V14.01,2013-05-03 21:59:00,
2013-05-03 18:00:00,64.5,54.9,30.08,NE,36,0.0,0.0,71,0.00,,---,0.00,VWS V14.01,2013-05-03 22:00:00,
2013-05-03 18:04:00,65.4,52.5,30.05,NE,37,0.0,0.0,63,0.00,,---,0.00,VWS V14.01,2013-05-03 22:04:00,
2013-05-03 18:09:00,65.3,52.0,30.05,NE,44,0.0,0.0,62,0.00,,---,0.00,VWS V14.01,2013-05-03 22:09:00,
2013-05-03 18:14:00,65.3,52.0,30.05,NE,37,0.0,0.0,62,0.00,,---,0.00,VWS V14.01,2013-05-03 22:14:00,
2013-05-03 18:19:00,65.2,51.9,30.05,NE,51,0.0,0.0,62,0.00,,---,0.00,VWS V14.01,2013-05-03 22:19:00,
2013-05-03 18:24:00,65.2,53.6,30.05,NE,36,0.0,0.0,66,0.00,,---,0.00,VWS V14.01,2013-05-03 22:24:00,
2013-05-03 18:29:00,65.1,52.6,30.05,NE,41,0.0,0.0,64,0.00,,---,0.00,VWS V14.01,2013-05-03 22:29:00,
2013-05-03 18:30:00,64.9,54.9,30.08,ENE,61,0.0,0.0,70,0.00,,---,0.00,VWS V14.01,2013-05-03 22:30:00,
2013-05-03 18:34:00,65.0,52.5,30.05,NE,45,0.0,0.0,64,0.00,,---,0.00,VWS V14.01,2013-05-03 22:34:00,
2013-05-03 18:39:00,64.9,52.5,30.05,NE,43,0.0,0.0,64,0.00,,---,0.00,VWS V14.01,2013-05-03 22:39:00,
2013-05-03 18:44:00,64.9,51.6,30.05,NE,52,0.0,0.0,62,0.00,,---,0.00,VWS V14.01,2013-05-03 22:44:00,
2013-05-03 18:49:00,64.8,51.5,30.05,ENE,57,0.0,0.0,62,0.00,,---,0.00,VWS V14.01,2013-05-03 22:49:00,
2013-05-03 18:54:00,64.7,51.4,30.05,NE,40,0.0,0.0,62,0.00,,---,0.00,VWS V14.01,2013-05-03 22:54:00,
2013-05-03 18:59:00,64.7,51.8,30.05,NNE,17,0.0,0.0,63,0.00,,---,0.00,VWS V14.01,2013-05-03 22:59:00,
2013-05-03 19:00:00,64.3,53.9,30.06,NE,40,0.0,0.0,69,0.00,,---,0.00,VWS V14.01,2013-05-03 23:00:00,
2013-05-03 19:04:00,64.7,50.1,30.05,NE,41,0.0,0.0,59,0.00,,---,0.00,VWS V14.01,2013-05-03 23:04:00,
2013-05-03 19:09:00,64.6,51.3,30.05,NE,37,0.0,0.0,62,0.00,,---,0.00,VWS V14.01,2013-05-03 23:09:00,
2013-05-03 19:14:00,64.5,50.3,30.05,NE,50,0.0,0.0,60,0.00,,---,0.00,VWS V14.01,2013-05-03 23:14:00,
2013-05-03 19:19:00,64.4,50.7,30.05,NE,34,0.0,0.0,61,0.00,,---,0.00,VWS V14.01,2013-05-03 23:19:00,
2013-05-03 19:24:00,64.3,50.6,30.04,ENE,58,0.0,0.0,61,0.00,,---,0.00,VWS V14.01,2013-05-03 23:24:00,
2013-05-03 19:29:00,64.3,50.6,30.04,NNE,30,0.0,0.0,61,0.00,,---,0.00,VWS V14.01,2013-05-03 23:29:00,
2013-05-03 19:30:00,64.3,54.3,30.05,NE,41,0.0,0.0,70,0.00,,---,0.00,VWS V14.01,2013-05-03 23:30:00,
2013-05-03 19:34:00,64.2,51.8,30.05,NE,44,0.0,0.0,64,0.00,,---,0.00,VWS V14.01,2013-05-03 23:34:00,
2013-05-03 19:39:00,64.1,51.3,30.05,NNE,26,0.0,0.0,63,0.00,,---,0.00,VWS V14.01,2013-05-03 23:39:00,
2013-05-03 19:44:00,64.1,51.3,30.05,ENE,59,0.0,0.0,63,0.00,,---,0.00,VWS V14.01,2013-05-03 23:44:00,
2013-05-03 19:49:00,64.0,51.2,30.05,ENE,59,0.0,0.0,63,0.00,,---,0.00,VWS V14.01,2013-05-03 23:49:00,
2013-05-03 19:54:00,64.0,51.2,30.06,NE,35,0.0,0.0,63,0.00,,---,0.00,VWS V14.01,2013-05-03 23:54:00,
2013-05-03 19:59:00,63.9,50.6,30.06,NNE,32,0.0,0.0,62,0.00,,---,0.00,VWS V14.01,2013-05-03 23:59:00,
2013-05-03 20:00:00,64.7,52.3,30.04,NE,39,0.0,0.0,64,0.00,,---,0.00,VWS V14.01,2013-05-04 00:00:00,
2013-05-03 20:04:00,63.9,50.2,30.06,ENE,62,0.0,0.0,61,0.00,,---,0.00,VWS V14.01,2013-05-04 00:04:00,
2013-05-03 20:09:00,63.8,47.8,30.07,NE,47,0.0,0.0,56,0.00,,---,0.00,VWS V14.01,2013-05-04 00:09:00,
2013-05-03 20:14:00,63.9,48.4,30.06,NE,45,0.0,0.0,57,0.00,,---,0.00,VWS V14.01,2013-05-04 00:14:00,
2013-05-03 20:19:00,63.8,48.3,30.06,NE,45,0.0,0.0,57,0.00,,---,0.00,VWS V14.01,2013-05-04 00:19:00,
2013-05-03 20:24:00,63.7,48.7,30.05,NE,40,0.0,0.0,58,0.00,,---,0.00,VWS V14.01,2013-05-04 00:24:00,
2013-05-03 20:29:00,63.6,49.0,30.05,NE,46,0.0,0.0,59,0.00,,---,0.00,VWS V14.01,2013-05-04 00:29:00,
2013-05-03 20:30:00,65.2,51.9,30.05,NE,46,0.0,0.0,62,0.00,,---,0.00,VWS V14.01,2013-05-04 00:30:00,
2013-05-03 20:34:00,63.5,48.9,30.06,NNE,19,0.0,0.0,59,0.00,,---,0.00,VWS V14.01,2013-05-04 00:34:00,
2013-05-03 20:39:00,63.2,49.1,30.05,NE,51,0.0,0.0,60,0.00,,---,0.00,VWS V14.01,2013-05-04 00:39:00,
2013-05-03 20:44:00,63.2,50.0,30.05,NNE,26,0.0,0.0,62,0.00,,---,0.00,VWS V14.01,2013-05-04 00:44:00,
2013-05-03 20:49:00,63.2,50.4,30.05,NE,38,0.0,0.0,63,0.00,,---,0.00,VWS V14.01,2013-05-04 00:49:00,
2013-05-03 20:54:00,63.1,50.7,30.05,NNE,28,0.0,0.0,64,0.00,,---,0.00,VWS V14.01,2013-05-04 00:54:00,
2013-05-03 20:59:00,62.9,49.7,30.05,NNE,26,0.0,0.0,62,0.00,,---,0.00,VWS V14.01,2013-05-04 00:59:00,
2013-05-03 21:00:00,65.4,52.5,30.05,NNE,24,0.0,0.0,63,0.00,,---,0.00,VWS V14.01,2013-05-04 01:00:00,
2013-05-03 21:04:00,62.7,49.5,30.06,NE,37,0.0,0.0,62,0.00,,---,0.00,VWS V14.01,2013-05-04 01:04:00,
2013-05-03 21:09:00,62.6,49.0,30.05,NE,35,0.0,0.0,61,0.00,,---,0.00,VWS V14.01,2013-05-04 01:09:00,
2013-05-03 21:14:00,62.4,48.8,30.05,NNE,22,0.0,0.0,61,0.00,,---,0.00,VWS V14.01,2013-05-04 01:14:00,
2013-05-03 21:19:00,62.5,48.9,30.06,NNE,22,0.0,0.0,61,0.00,,---,0.00,VWS V14.01,2013-05-04 01:19:00,
2013-05-03 21:24:00,62.5,48.0,30.06,NNE,26,0.0,0.0,59,0.00,,---,0.00,VWS V14.01,2013-05-04 01:24:00,
2013-05-03 21:29:00,62.4,47.0,30.06,NE,49,0.0,0.0,57,0.00,,---,0.00,VWS V14.01,2013-05-04 01:29:00,
2013-05-03 21:30:00,65.1,52.2,30.05,NE,55,0.0,0.0,63,0.00,,---,0.00,VWS V14.01,2013-05-04 01:30:00,
2013-05-03 21:34:00,62.3,46.9,30.06,NE,34,0.0,0.0,57,0.00,,---,0.00,VWS V14.01,2013-05-04 01:34:00,
2013-05-03 21:39:00,62.2,47.3,30.06,NE,44,0.0,0.0,58,0.00,,---,0.00,VWS V14.01,2013-05-04 01:39:00,
2013-05-03 21:44:00,62.1,47.2,30.06,NE,46,0.0,0.0,58,0.00,,---,0.00,VWS V14.01,2013-05-04 01:44:00,
2013-05-03 21:49:00,61.9,47.0,30.06,NE,44,0.0,0.0,58,0.00,,---,0.00,VWS V14.01,2013-05-04 01:49:00,
2013-05-03 21:54:00,61.9,47.0,30.06,NE,36,0.0,0.0,58,0.00,,---,0.00,VWS V14.01,2013-05-04 01:54:00,
2013-05-03 21:59:00,61.7,46.8,30.06,NNE,20,0.0,0.0,58,0.00,,---,0.00,VWS V14.01,2013-05-04 01:59:00,
2013-05-03 22:00:00,64.7,51.0,30.05,ENE,63,0.0,0.0,61,0.00,,---,0.00,VWS V14.01,2013-05-04 02:00:00,
2013-05-03 22:04:00,61.6,47.6,30.06,NE,50,0.0,0.0,60,0.00,,---,0.00,VWS V14.01,2013-05-04 02:04:00,
2013-05-03 22:09:00,61.4,47.8,30.07,NE,42,0.0,0.0,61,0.00,,---,0.00,VWS V14.01,2013-05-04 02:09:00,
2013-05-03 22:14:00,61.3,48.6,30.07,NNE,14,0.0,0.0,63,0.00,,---,0.00,VWS V14.01,2013-05-04 02:14:00,
2013-05-03 22:19:00,61.1,48.0,30.07,NNE,29,0.0,0.0,62,0.00,,---,0.00,VWS V14.01,2013-05-04 02:19:00,
2013-05-03 22:24:00,60.9,48.7,30.07,NE,34,0.0,0.0,64,0.00,,---,0.00,VWS V14.01,2013-05-04 02:24:00,
2013-05-03 22:29:00,60.8,48.1,30.07,NE,38,0.0,0.0,63,0.00,,---,0.00,VWS V14.01,2013-05-04 02:29:00,
2013-05-03 22:30:00,64.2,51.4,30.04,NE,45,0.0,0.0,63,0.00,,---,0.00,VWS V14.01,2013-05-04 02:30:00,
2013-05-03 22:34:00,60.6,48.4,30.07,NE,44,0.0,0.0,64,0.00,,---,0.00,VWS V14.01,2013-05-04 02:34:00,
2013-05-03 22:39:00,60.5,48.3,30.06,NE,52,0.0,0.0,64,0.00,,---,0.00,VWS V14.01,2013-05-04 02:39:00,
2013-05-03 22:44:00,60.3,48.5,30.07,NE,42,0.0,0.0,65,0.00,,---,0.00,VWS V14.01,2013-05-04 02:44:00,
2013-05-03 22:49:00,60.2,48.8,30.06,NE,44,0.0,0.0,66,0.00,,---,0.00,VWS V14.01,2013-05-04 02:49:00,
2013-05-03 22:54:00,60.1,48.7,30.06,NNE,31,0.0,0.0,66,0.00,,---,0.00,VWS V14.01,2013-05-04 02:54:00,
2013-05-03 22:59:00,59.9,48.5,30.06,NE,42,0.0,0.0,66,0.00,,---,0.00,VWS V14.01,2013-05-04 02:59:00,
2013-05-03 23:00:00,64.0,51.2,30.06,NE,44,0.0,0.0,63,0.00,,---,0.00,VWS V14.01,2013-05-04 03:00:00,
2013-05-03 23:04:00,59.8,48.8,30.06,NNE,19,0.0,0.0,67,0.00,,---,0.00,VWS V14.01,2013-05-04 03:04:00,
2013-05-03 23:09:00,59.7,48.7,30.06,NE,38,0.0,0.0,67,0.00,,---,0.00,VWS V14.01,2013-05-04 03:09:00,
2013-05-03 23:14:00,59.6,48.6,30.06,NNE,15,0.0,0.0,67,0.00,,---,0.00,VWS V14.01,2013-05-04 03:14:00,
2013-05-03 23:19:00,59.6,49.0,30.06,NNE,29,0.0,0.0,68,0.00,,---,0.00,VWS V14.01,2013-05-04 03:19:00,
2013-05-03 23:24:00,59.5,48.9,30.06,NNE,17,0.0,0.0,68,0.00,,---,0.00,VWS V14.01,2013-05-04 03:24:00,
2013-05-03 23:29:00,59.4,48.8,30.06,NNE,32,0.0,0.0,68,0.00,,---,0.00,VWS V14.01,2013-05-04 03:29:00,
2013-05-03 23:30:00,63.6,49.0,30.05,NNE,32,0.0,0.0,59,0.00,,---,0.00,VWS V14.01,2013-05-04 03:30:00,
2013-05-03 23:34:00,59.2,48.7,30.05,NE,54,0.0,0.0,68,0.00,,---,0.00,VWS V14.01,2013-05-04 03:34:00,
2013-05-03 23:39:00,59.3,49.1,30.05,NE,40,0.0,0.0,69,0.00,,---,0.00,VWS V14.01,2013-05-04 03:39:00,
2013-05-03 23:44:00,59.2,49.0,30.05,NE,34,0.0,0.0,69,0.00,,---,0.00,VWS V14.01,2013-05-04 03:44:00,
2013-05-03 23:49:00,59.3,49.5,30.05,NNE,12,0.0,0.0,70,0.00,,---,0.00,VWS V14.01,2013-05-04 03:49:00,
2013-05-03 23:54:00,59.3,49.9,30.05,NE,37,0.0,0.0,71,0.00,,---,0.00,VWS V14.01,2013-05-04 03:54:00,
2013-05-03 23:59:00,59.3,49.9,30.05,NE,38,0.0,0.0,71,0.00,,---,0.00,VWS V14.01,2013-05-04 03:59:00,